Nortonsville, Virginia
Current Conditions -  °F | °C
As of 4:53 PM on Monday 24 Nov 2014 (Local Time) from KCHO Reporting Station
Clear Clear  
Wind Chill: 68°   Ceiling: Unl
Heat Index: 68°   Visibility: 10mi
Dew Point: 52°   Wind: 12mph
Humidity: 56%   Direction: 210°SSW
Pressure: 29.68"   Gusts: NA
Location:  38.2663°N, 78.5808°W
Report Text: KCHO 242153Z 21010KT 10SM CLR 20/11 A2968 RMK AO2 SLP045 T02000111
Loading
Personal Weather Stations






























Interactive Weather Map New forecast layout! Learn more

10-Day Weather Forecast

Advertisements
Track Severe Weather on mobile